createdAt,value
2022-11-06T00:00:31.845Z,7.76
2022-11-06T00:03:01.797Z,7.80
2022-11-06T00:05:47.889Z,7.79
2022-11-06T00:08:16.376Z,7.85
2022-11-06T00:10:44.522Z,7.82
2022-11-06T00:13:12.520Z,7.90
2022-11-06T00:15:41.840Z,7.88
2022-11-06T00:18:10.017Z,7.91
2022-11-06T00:20:38.475Z,7.88
2022-11-06T00:23:06.459Z,7.92
2022-11-06T00:25:34.441Z,7.93
2022-11-06T00:28:02.389Z,7.96
2022-11-06T00:30:30.342Z,8.02
2022-11-06T00:33:00.347Z,8.01
2022-11-06T00:35:28.303Z,7.98
2022-11-06T00:37:56.603Z,7.96
2022-11-06T00:40:24.620Z,7.97
2022-11-06T00:42:57.125Z,8.04
2022-11-06T00:45:26.146Z,8.08
2022-11-06T00:47:54.111Z,8.09
2022-11-06T00:50:26.425Z,8.05
2022-11-06T00:52:55.601Z,8.01
2022-11-06T00:55:23.554Z,8.02
2022-11-06T00:57:52.459Z,8.00
2022-11-06T01:00:20.939Z,7.95
2022-11-06T01:02:49.243Z,7.95
2022-11-06T01:05:17.864Z,7.96
2022-11-06T01:07:47.251Z,7.94
2022-11-06T01:10:15.198Z,7.92
2022-11-06T01:12:43.193Z,7.91
2022-11-06T01:15:11.723Z,7.89
2022-11-06T01:17:39.673Z,7.87
2022-11-06T01:20:08.614Z,7.83
2022-11-06T01:22:36.563Z,7.87
2022-11-06T01:25:07.373Z,7.85
2022-11-06T01:27:35.369Z,7.85
2022-11-06T01:30:03.762Z,7.83
2022-11-06T01:32:31.670Z,7.82
2022-11-06T01:34:59.591Z,7.82
2022-11-06T01:37:27.500Z,7.80
2022-11-06T01:39:55.420Z,7.79
2022-11-06T01:42:24.830Z,7.83
2022-11-06T01:45:26.015Z,7.87
2022-11-06T01:47:54.069Z,7.83
2022-11-06T01:50:22.239Z,7.82
2022-11-06T01:52:52.783Z,7.82
2022-11-06T01:55:25.163Z,7.86
2022-11-06T01:57:56.472Z,7.89
2022-11-06T02:00:24.783Z,7.90
2022-11-06T02:02:53.033Z,7.90
2022-11-06T02:05:21.270Z,7.90
2022-11-06T02:07:49.689Z,7.94
2022-11-06T02:10:18.435Z,7.96
2022-11-06T02:12:59.613Z,7.96
2022-11-06T02:15:37.626Z,7.95
2022-11-06T02:18:28.121Z,7.93
2022-11-06T02:21:16.657Z,7.98
2022-11-06T02:23:58.357Z,8.00
2022-11-06T02:26:41.572Z,7.98
2022-11-06T02:29:16.100Z,8.03
2022-11-06T02:31:46.378Z,8.04
2022-11-06T02:34:17.493Z,8.07
2022-11-06T02:36:52.466Z,8.10
2022-11-06T02:39:23.754Z,8.05
2022-11-06T02:41:54.456Z,8.08
2022-11-06T02:44:26.907Z,8.05
2022-11-06T02:46:57.896Z,7.93
2022-11-06T02:49:31.425Z,8.02
2022-11-06T02:52:04.912Z,8.04
2022-11-06T02:54:36.777Z,8.05
2022-11-06T02:57:09.045Z,8.04
2022-11-06T02:59:45.243Z,7.93
2022-11-06T03:02:17.695Z,8.06
2022-11-06T03:04:52.378Z,8.09
2022-11-06T03:07:26.354Z,8.08
2022-11-06T03:09:54.303Z,8.04
2022-11-06T03:12:26.882Z,7.99
2022-11-06T03:15:00.986Z,7.95
2022-11-06T03:17:40.955Z,7.95
2022-11-06T03:20:18.896Z,7.94
2022-11-06T03:22:53.468Z,7.96
2022-11-06T03:25:25.187Z,7.96
2022-11-06T03:28:02.772Z,7.90
2022-11-06T03:30:35.914Z,7.94
2022-11-06T03:33:10.574Z,7.94
2022-11-06T03:35:45.181Z,7.95
2022-11-06T03:38:19.406Z,7.95
2022-11-06T03:40:52.652Z,7.90
2022-11-06T03:43:24.969Z,7.96
2022-11-06T03:45:57.039Z,7.97
2022-11-06T03:48:32.596Z,7.98
2022-11-06T03:51:06.520Z,7.98
2022-11-06T03:53:42.420Z,7.97
2022-11-06T03:56:14.931Z,8.00
2022-11-06T03:58:46.846Z,7.98
2022-11-06T04:01:29.954Z,7.98
2022-11-06T04:04:01.182Z,7.98
2022-11-06T04:06:34.853Z,7.96
2022-11-06T04:09:24.171Z,8.02
2022-11-06T04:12:10.099Z,8.07
2022-11-06T04:14:42.082Z,8.06
2022-11-06T04:17:13.367Z,8.02
2022-11-06T04:19:47.929Z,8.04
2022-11-06T04:22:38.312Z,7.98
2022-11-06T04:25:36.634Z,7.94
2022-11-06T04:28:24.188Z,7.92
2022-11-06T04:31:01.099Z,7.92
2022-11-06T04:33:38.974Z,7.95
2022-11-06T04:36:16.394Z,7.95
2022-11-06T04:38:52.508Z,7.94
2022-11-06T04:41:34.279Z,7.99
2022-11-06T04:44:07.794Z,7.94
2022-11-06T04:46:41.538Z,7.80
2022-11-06T04:49:12.434Z,7.96
2022-11-06T04:51:41.997Z,7.95
2022-11-06T04:54:11.846Z,7.93
2022-11-06T04:56:44.741Z,7.93
2022-11-06T04:59:16.766Z,7.92
2022-11-06T05:01:45.135Z,7.94
2022-11-06T05:04:14.806Z,7.91
2022-11-06T05:06:42.973Z,7.87
2022-11-06T05:09:11.064Z,7.91
2022-11-06T05:11:39.406Z,7.92
2022-11-06T05:14:07.643Z,7.94
2022-11-06T05:16:35.643Z,7.92
2022-11-06T05:19:03.877Z,7.96
2022-11-06T05:21:50.900Z,7.95
2022-11-06T05:24:18.968Z,7.90
2022-11-06T05:26:46.928Z,7.89
2022-11-06T05:29:15.270Z,7.86
2022-11-06T05:31:43.523Z,7.86
2022-11-06T05:34:12.069Z,7.86
2022-11-06T05:36:41.451Z,7.86
2022-11-06T05:39:09.508Z,7.91
2022-11-06T05:41:37.532Z,7.88
2022-11-06T05:44:05.609Z,7.90
2022-11-06T05:46:50.037Z,7.88
2022-11-06T05:49:18.787Z,7.87
2022-11-06T05:51:48.308Z,7.84
2022-11-06T05:54:16.378Z,7.74
2022-11-06T05:56:44.413Z,7.79
2022-11-06T05:59:13.011Z,7.73
2022-11-06T06:01:41.178Z,7.65
2022-11-06T06:04:09.308Z,7.63
2022-11-06T06:06:37.519Z,7.54
2022-11-06T06:09:06.835Z,7.54
2022-11-06T06:11:34.968Z,7.46
2022-11-06T06:14:02.982Z,7.42
2022-11-06T06:16:30.943Z,7.36
2022-11-06T06:18:58.907Z,7.30
2022-11-06T06:21:26.926Z,7.28
2022-11-06T06:23:54.912Z,7.30
2022-11-06T06:26:24.401Z,7.23
2022-11-06T06:28:52.331Z,7.21
2022-11-06T06:31:20.302Z,7.15
2022-11-06T06:33:48.367Z,7.08
2022-11-06T06:36:16.455Z,7.07
2022-11-06T06:38:44.439Z,7.02
2022-11-06T06:41:12.452Z,6.99
2022-11-06T06:43:41.785Z,7.00
2022-11-06T06:46:09.778Z,6.95
2022-11-06T06:48:38.099Z,6.94
2022-11-06T06:51:07.835Z,6.90
2022-11-06T06:53:36.187Z,6.97
2022-11-06T06:56:04.844Z,7.02
2022-11-06T06:58:33.436Z,6.94
2022-11-06T07:01:04.189Z,6.94
2022-11-06T07:03:33.035Z,6.90
2022-11-06T07:06:01.131Z,6.96
2022-11-06T07:08:29.659Z,7.03
2022-11-06T07:11:01.010Z,7.05
2022-11-06T07:13:34.397Z,7.05
2022-11-06T07:16:05.424Z,7.08
2022-11-06T07:18:33.542Z,7.11
2022-11-06T07:21:01.665Z,7.18
2022-11-06T07:23:29.643Z,7.15
2022-11-06T07:25:57.619Z,7.19
2022-11-06T07:28:25.627Z,7.10
2022-11-06T07:30:53.573Z,7.14
2022-11-06T07:33:22.902Z,7.15
2022-11-06T07:35:50.841Z,7.16
2022-11-06T07:38:19.024Z,7.18
2022-11-06T07:40:46.989Z,7.22
2022-11-06T07:43:15.391Z,7.24
2022-11-06T07:45:43.362Z,7.33
2022-11-06T07:48:11.480Z,7.30
2022-11-06T07:50:41.100Z,7.30
2022-11-06T07:53:09.091Z,7.34
2022-11-06T07:55:41.934Z,7.38
2022-11-06T07:58:10.550Z,7.41
2022-11-06T08:00:38.695Z,7.41
2022-11-06T08:03:06.692Z,7.46
2022-11-06T08:05:34.676Z,7.48
2022-11-06T08:08:04.050Z,7.53
2022-11-06T08:10:32.019Z,7.59
2022-11-06T08:13:01.187Z,7.62
2022-11-06T08:15:29.247Z,7.61
2022-11-06T08:17:59.362Z,7.65
2022-11-06T08:20:27.550Z,7.57
2022-11-06T08:22:59.968Z,7.65
2022-11-06T08:25:30.760Z,7.69
2022-11-06T08:27:59.725Z,7.78
2022-11-06T08:30:28.924Z,7.74
2022-11-06T08:33:01.576Z,7.79
2022-11-06T08:35:29.796Z,7.84
2022-11-06T08:37:58.043Z,7.89
2022-11-06T08:40:30.646Z,7.90
2022-11-06T08:43:04.964Z,7.88
2022-11-06T08:45:34.008Z,7.87
2022-11-06T08:48:03.037Z,7.89
2022-11-06T08:50:31.297Z,7.92
2022-11-06T08:53:01.168Z,7.94
2022-11-06T08:55:29.174Z,7.99
2022-11-06T08:57:57.193Z,8.01
2022-11-06T09:00:27.230Z,8.07
2022-11-06T09:02:59.308Z,8.14
2022-11-06T09:05:27.697Z,8.18
2022-11-06T09:07:56.864Z,8.25
2022-11-06T09:10:25.060Z,8.34
2022-11-06T09:12:53.150Z,8.47
2022-11-06T09:15:21.188Z,8.49
2022-11-06T09:17:52.152Z,8.54
2022-11-06T09:20:21.600Z,8.68
2022-11-06T09:22:49.607Z,8.70
2022-11-06T09:25:17.802Z,8.79
2022-11-06T09:27:47.512Z,8.69
2022-11-06T09:30:17.337Z,8.93
2022-11-06T09:32:51.308Z,8.95
2022-11-06T09:35:19.755Z,8.94
2022-11-06T09:37:47.861Z,8.98
2022-11-06T09:40:22.376Z,8.95
2022-11-06T09:43:13.158Z,9.06
2022-11-06T09:45:42.119Z,9.09
2022-11-06T09:48:20.632Z,9.10
2022-11-06T09:50:53.028Z,9.11
2022-11-06T09:53:28.308Z,9.14
2022-11-06T09:55:58.920Z,9.16
2022-11-06T09:58:32.474Z,9.17
2022-11-06T10:01:07.228Z,9.16
2022-11-06T10:03:42.589Z,9.25
2022-11-06T10:06:10.655Z,9.30
2022-11-06T10:08:38.911Z,9.33
2022-11-06T10:11:25.424Z,9.44
2022-11-06T10:14:01.477Z,9.50
2022-11-06T10:16:37.795Z,9.60
2022-11-06T10:19:14.470Z,9.65
2022-11-06T10:21:48.678Z,9.76
2022-11-06T10:24:23.945Z,9.85
2022-11-06T10:26:56.737Z,9.91
2022-11-06T10:29:59.283Z,9.89
2022-11-06T10:32:48.954Z,9.93
2022-11-06T10:35:24.328Z,10.03
2022-11-06T10:37:56.284Z,10.14
2022-11-06T10:40:26.992Z,10.20
2022-11-06T10:43:04.918Z,10.30
2022-11-06T10:45:34.562Z,10.42
2022-11-06T10:48:15.295Z,10.53
2022-11-06T10:50:57.597Z,10.44
2022-11-06T10:53:35.819Z,10.37
2022-11-06T10:56:25.371Z,10.42
2022-11-06T10:58:54.043Z,10.56
2022-11-06T11:01:22.224Z,10.51
2022-11-06T11:03:51.519Z,10.36
2022-11-06T11:06:21.065Z,10.40
2022-11-06T11:08:50.403Z,10.48
2022-11-06T11:11:23.399Z,10.61
2022-11-06T11:14:13.072Z,10.69
2022-11-06T11:16:45.637Z,10.77
2022-11-06T11:19:24.702Z,10.90
2022-11-06T11:21:58.422Z,10.92
2022-11-06T11:24:27.087Z,11.08
2022-11-06T11:26:59.925Z,11.14
2022-11-06T11:29:31.807Z,11.24
2022-11-06T11:32:05.673Z,11.32
2022-11-06T11:34:36.724Z,11.42
2022-11-06T11:37:06.454Z,11.34
2022-11-06T11:39:36.270Z,11.41
2022-11-06T11:42:25.736Z,11.42
2022-11-06T11:45:17.232Z,11.57
2022-11-06T11:47:48.657Z,11.69
2022-11-06T11:50:34.913Z,11.97
2022-11-06T11:53:12.815Z,12.21
2022-11-06T11:55:44.523Z,12.27
2022-11-06T11:58:22.551Z,12.45
2022-11-06T12:00:54.529Z,12.32
2022-11-06T12:03:28.065Z,12.42
2022-11-06T12:06:06.401Z,12.40
2022-11-06T12:08:34.561Z,12.39
2022-11-06T12:11:04.763Z,12.42
2022-11-06T12:13:32.799Z,12.29
2022-11-06T12:16:03.061Z,12.40
2022-11-06T12:18:36.185Z,12.22
2022-11-06T12:21:06.883Z,12.28
2022-11-06T12:23:41.905Z,12.19
2022-11-06T12:26:26.944Z,12.24
2022-11-06T12:29:03.731Z,12.21
2022-11-06T12:31:38.044Z,12.19
2022-11-06T12:34:17.415Z,12.18
2022-11-06T12:36:58.182Z,12.08
2022-11-06T12:39:30.940Z,12.09
2022-11-06T12:41:59.039Z,12.00
2022-11-06T12:44:27.067Z,11.93
2022-11-06T12:47:00.994Z,11.81
2022-11-06T12:49:57.940Z,11.73
2022-11-06T12:52:37.268Z,11.62
2022-11-06T12:55:18.472Z,11.65
2022-11-06T12:58:11.213Z,11.65
2022-11-06T13:00:51.835Z,11.68
2022-11-06T13:03:36.277Z,11.71
2022-11-06T13:06:13.676Z,11.58
2022-11-06T13:08:52.331Z,11.70
2022-11-06T13:11:33.014Z,11.69
2022-11-06T13:14:20.622Z,11.75
2022-11-06T13:16:56.246Z,11.52
2022-11-06T13:19:32.535Z,11.75
2022-11-06T13:22:19.483Z,11.77
2022-11-06T13:24:54.161Z,11.79
2022-11-06T13:27:32.288Z,11.75
2022-11-06T13:30:05.337Z,11.78
2022-11-06T13:32:37.484Z,11.75
2022-11-06T13:35:06.934Z,11.72
2022-11-06T13:37:40.879Z,11.76
2022-11-06T13:40:19.896Z,11.81
2022-11-06T13:42:52.666Z,11.75
2022-11-06T13:45:22.935Z,11.84
2022-11-06T13:48:05.694Z,11.87
2022-11-06T13:50:43.764Z,11.85
2022-11-06T13:53:22.447Z,11.86
2022-11-06T13:56:06.666Z,11.97
2022-11-06T13:59:16.147Z,11.98
2022-11-06T14:01:56.221Z,12.03
2022-11-06T14:05:03.521Z,12.00
2022-11-06T14:07:34.108Z,11.84
2022-11-06T14:10:04.115Z,11.73
2022-11-06T14:12:32.241Z,11.63
2022-11-06T14:15:23.543Z,11.51
2022-11-06T14:17:59.044Z,11.46
2022-11-06T14:20:33.003Z,11.42
2022-11-06T14:23:40.559Z,11.42
2022-11-06T14:26:13.084Z,11.42
2022-11-06T14:28:42.957Z,11.40
2022-11-06T14:31:15.033Z,11.41
2022-11-06T14:34:02.192Z,11.37
2022-11-06T14:36:33.669Z,11.07
2022-11-06T14:39:03.730Z,11.26
2022-11-06T14:41:57.985Z,11.23
2022-11-06T14:44:34.643Z,11.19
2022-11-06T14:47:06.251Z,11.13
2022-11-06T14:49:43.829Z,11.00
2022-11-06T14:52:14.097Z,10.91
2022-11-06T14:54:51.460Z,10.90
2022-11-06T14:57:39.429Z,10.86
2022-11-06T15:00:08.650Z,10.75
2022-11-06T15:02:38.397Z,10.70
2022-11-06T15:05:09.429Z,10.58
2022-11-06T15:08:05.863Z,10.51
2022-11-06T15:10:52.836Z,10.46
2022-11-06T15:13:27.395Z,10.40
2022-11-06T15:16:06.124Z,10.34
2022-11-06T15:18:37.398Z,10.25
2022-11-06T15:21:09.481Z,10.24
2022-11-06T15:23:43.584Z,10.19
2022-11-06T15:26:22.973Z,10.19
2022-11-06T15:29:05.580Z,10.12
2022-11-06T15:31:34.947Z,10.12
2022-11-06T15:34:05.176Z,10.07
2022-11-06T15:36:39.504Z,10.07
2022-11-06T15:39:23.206Z,10.02
2022-11-06T15:41:52.068Z,9.97
2022-11-06T15:44:24.295Z,9.95
2022-11-06T15:46:56.579Z,9.96
2022-11-06T15:49:25.369Z,9.89
2022-11-06T15:51:56.368Z,9.88
2022-11-06T15:54:38.913Z,9.86
2022-11-06T15:57:16.624Z,9.85
2022-11-06T15:59:46.089Z,9.84
2022-11-06T16:02:17.600Z,9.80
2022-11-06T16:04:46.583Z,9.78
2022-11-06T16:07:15.998Z,9.79
2022-11-06T16:09:44.717Z,9.79
2022-11-06T16:12:14.495Z,9.82
2022-11-06T16:14:44.675Z,9.79
2022-11-06T16:17:19.515Z,9.80
2022-11-06T16:19:50.076Z,9.76
2022-11-06T16:22:20.651Z,9.73
2022-11-06T16:24:52.349Z,9.72
2022-11-06T16:27:23.430Z,9.66
2022-11-06T16:29:55.954Z,9.64
2022-11-06T16:32:27.784Z,9.63
2022-11-06T16:34:56.136Z,9.59
2022-11-06T16:37:38.856Z,9.61
2022-11-06T16:40:48.135Z,9.59
2022-11-06T16:43:17.721Z,9.64
2022-11-06T16:45:57.574Z,9.61
2022-11-06T16:48:41.121Z,9.63
2022-11-06T16:51:14.860Z,9.63
2022-11-06T16:53:58.889Z,9.60
2022-11-06T16:56:29.681Z,9.54
2022-11-06T16:59:02.323Z,9.53
2022-11-06T17:01:38.866Z,9.48
2022-11-06T17:04:14.825Z,9.45
2022-11-06T17:06:45.739Z,9.45
2022-11-06T17:09:29.783Z,9.45
2022-11-06T17:11:58.740Z,9.44
2022-11-06T17:14:27.197Z,9.43
2022-11-06T17:16:57.716Z,9.43
2022-11-06T17:19:28.360Z,9.38
2022-11-06T17:21:56.576Z,9.41
2022-11-06T17:24:36.361Z,9.37
2022-11-06T17:27:05.007Z,9.34
2022-11-06T17:29:33.920Z,9.32
2022-11-06T17:32:01.915Z,9.31
2022-11-06T17:34:31.303Z,9.31
2022-11-06T17:36:59.375Z,9.30
2022-11-06T17:39:27.489Z,9.24
2022-11-06T17:41:55.477Z,9.28
2022-11-06T17:44:23.488Z,9.27
2022-11-06T17:46:51.531Z,9.23
2022-11-06T17:49:19.581Z,9.19
2022-11-06T17:51:53.698Z,9.17
2022-11-06T17:54:23.423Z,9.18
2022-11-06T17:56:53.495Z,9.21
2022-11-06T17:59:23.850Z,9.19
2022-11-06T18:01:52.411Z,9.16
2022-11-06T18:04:22.254Z,9.17
2022-11-06T18:06:53.210Z,9.14
2022-11-06T18:09:22.470Z,9.11
2022-11-06T18:11:51.718Z,9.09
2022-11-06T18:14:20.996Z,9.10
2022-11-06T18:16:49.797Z,9.09
2022-11-06T18:19:19.657Z,9.11
2022-11-06T18:21:47.706Z,9.12
2022-11-06T18:24:17.131Z,9.13
2022-11-06T18:26:45.240Z,9.11
2022-11-06T18:29:14.525Z,9.13
2022-11-06T18:31:42.989Z,9.11
2022-11-06T18:34:18.439Z,9.11
2022-11-06T18:36:48.563Z,9.13
2022-11-06T18:39:18.199Z,9.11
2022-11-06T18:41:46.189Z,9.08
2022-11-06T18:44:16.432Z,9.09
2022-11-06T18:46:45.032Z,9.08
2022-11-06T18:49:13.157Z,9.06
2022-11-06T18:51:41.525Z,9.08
2022-11-06T18:54:12.160Z,9.07
2022-11-06T18:56:41.741Z,9.06
2022-11-06T18:59:15.136Z,9.00
2022-11-06T19:01:43.311Z,9.01
2022-11-06T19:04:11.738Z,9.03
2022-11-06T19:06:40.302Z,9.05
2022-11-06T19:09:09.002Z,9.06
2022-11-06T19:11:36.998Z,9.03
2022-11-06T19:14:06.828Z,9.01
2022-11-06T19:16:34.960Z,8.97
2022-11-06T19:19:05.556Z,8.94
2022-11-06T19:21:34.519Z,8.96
2022-11-06T19:24:05.646Z,9.06
2022-11-06T19:26:35.415Z,9.02
2022-11-06T19:29:04.186Z,9.02
2022-11-06T19:31:34.990Z,8.98
2022-11-06T19:34:04.285Z,8.97
2022-11-06T19:36:32.968Z,8.96
2022-11-06T19:39:01.056Z,8.89
2022-11-06T19:41:30.034Z,8.94
2022-11-06T19:43:58.097Z,8.97
2022-11-06T19:46:32.324Z,8.95
2022-11-06T19:49:04.689Z,8.99
2022-11-06T19:51:33.337Z,8.97
2022-11-06T19:54:01.978Z,9.00
2022-11-06T19:56:30.411Z,8.98
2022-11-06T19:58:58.595Z,8.98
2022-11-06T20:01:26.835Z,9.01
2022-11-06T20:03:55.001Z,8.96
2022-11-06T20:06:24.369Z,9.00
2022-11-06T20:08:52.444Z,8.98
2022-11-06T20:11:20.747Z,9.05
2022-11-06T20:13:48.802Z,9.02
2022-11-06T20:16:18.774Z,8.99
2022-11-06T20:18:51.899Z,9.02
2022-11-06T20:21:20.965Z,9.04
2022-11-06T20:23:50.564Z,9.04
2022-11-06T20:26:18.665Z,9.05
2022-11-06T20:28:48.376Z,9.03
2022-11-06T20:31:19.047Z,9.01
2022-11-06T20:33:47.828Z,8.98
2022-11-06T20:36:19.200Z,9.03
2022-11-06T20:38:47.716Z,9.03
2022-11-06T20:41:17.685Z,9.07
2022-11-06T20:43:46.161Z,9.06
2022-11-06T20:46:15.883Z,9.10
2022-11-06T20:48:45.193Z,9.04
2022-11-06T20:51:15.627Z,9.13
2022-11-06T20:53:43.761Z,9.13
2022-11-06T20:56:15.216Z,9.15
2022-11-06T20:58:45.501Z,9.08
2022-11-06T21:01:17.328Z,9.04
2022-11-06T21:03:46.542Z,9.05
2022-11-06T21:06:15.871Z,8.97
2022-11-06T21:08:44.288Z,8.89
2022-11-06T21:11:17.897Z,8.76
2022-11-06T21:13:49.320Z,8.71
2022-11-06T21:16:18.971Z,8.60
2022-11-06T21:18:47.357Z,8.44
2022-11-06T21:21:17.799Z,8.32
2022-11-06T21:23:45.828Z,8.17
2022-11-06T21:26:15.372Z,8.07
2022-11-06T21:28:44.337Z,7.93
2022-11-06T21:31:15.647Z,7.80
2022-11-06T21:33:44.782Z,7.76
2022-11-06T21:36:15.029Z,7.71
2022-11-06T21:38:44.393Z,7.68
2022-11-06T21:41:14.318Z,7.65
2022-11-06T21:43:42.543Z,7.60
2022-11-06T21:46:12.417Z,7.59
2022-11-06T21:48:46.742Z,7.52
2022-11-06T21:51:17.876Z,7.42
2022-11-06T21:54:03.439Z,7.55
2022-11-06T21:56:32.075Z,7.52
2022-11-06T21:59:01.582Z,7.46
2022-11-06T22:01:29.972Z,7.51
2022-11-06T22:03:59.908Z,7.48
2022-11-06T22:06:29.609Z,7.43
2022-11-06T22:08:59.381Z,7.47
2022-11-06T22:11:29.440Z,7.38
2022-11-06T22:13:58.982Z,7.35
2022-11-06T22:16:28.844Z,7.38
2022-11-06T22:18:57.455Z,7.38
2022-11-06T22:21:28.520Z,7.43
2022-11-06T22:23:57.516Z,7.43
2022-11-06T22:26:27.451Z,7.46
2022-11-06T22:28:56.543Z,7.42
2022-11-06T22:31:25.083Z,7.45
2022-11-06T22:33:54.120Z,7.46
2022-11-06T22:36:22.912Z,7.41
2022-11-06T22:38:52.793Z,7.45
2022-11-06T22:41:23.202Z,7.52
2022-11-06T22:43:51.802Z,7.55
2022-11-06T22:46:22.515Z,7.58
2022-11-06T22:48:52.007Z,7.56
2022-11-06T22:51:22.198Z,7.61
2022-11-06T22:53:51.983Z,7.64
2022-11-06T22:56:20.572Z,7.67
2022-11-06T22:58:48.631Z,7.65
2022-11-06T23:01:21.861Z,7.69
2022-11-06T23:03:50.351Z,7.73
2022-11-06T23:06:18.327Z,7.73
2022-11-06T23:08:47.256Z,7.77
2022-11-06T23:11:18.117Z,7.75
2022-11-06T23:13:46.276Z,7.78
2022-11-06T23:16:16.157Z,7.74
2022-11-06T23:18:44.557Z,7.77
2022-11-06T23:21:13.886Z,7.87
2022-11-06T23:23:42.174Z,7.84
2022-11-06T23:26:14.967Z,7.87
2022-11-06T23:28:45.974Z,7.85
2022-11-06T23:31:15.581Z,7.85
2022-11-06T23:33:44.385Z,7.89
2022-11-06T23:36:14.690Z,7.93
2022-11-06T23:38:43.217Z,7.89
2022-11-06T23:41:27.177Z,7.87
2022-11-06T23:43:57.558Z,7.91
2022-11-06T23:46:26.284Z,7.91
2022-11-06T23:48:54.601Z,7.89
2022-11-06T23:51:23.800Z,7.94
2022-11-06T23:53:52.044Z,7.92
2022-11-06T23:56:20.511Z,7.97
2022-11-06T23:58:48.461Z,7.97
